Time;durP1;ratioP1;P1;durP2;ratioP2;P2;SDS_P1;SDS_P2;PMS_P1;PMS_P2;Temp;Humidity;BMP_temperature;BMP_pressure;BME280_temperature;BME280_humidity;BME280_pressure;Samples;Min_cycle;Max_cycle;Signal;HPM_P1;HPM_P2
2023/02/24 00:02:28;;;;;;;20.20;7.90;;;;;;;1.93;59.91;101058.20;123306;1102;104395;-82
2023/02/24 00:04:59;;;;;;;19.73;7.33;;;;;;;1.91;60.39;101052.91;123278;1102;104283;-82
2023/02/24 00:07:30;;;;;;;18.43;7.40;;;;;;;1.93;60.22;101055.62;123354;1102;104252;-82
2023/02/24 00:10:03;;;;;;;17.67;8.00;;;;;;;1.95;60.08;101047.20;123303;1102;104277;-83
2023/02/24 00:12:34;;;;;;;17.53;7.27;;;;;;;1.98;59.98;101041.38;123441;1102;104718;-83
2023/02/24 00:15:06;;;;;;;17.70;7.77;;;;;;;2.01;59.75;101048.46;123339;1102;104270;-83
2023/02/24 00:17:38;;;;;;;20.67;7.10;;;;;;;2.03;60.04;101047.81;123396;1102;104337;-84
2023/02/24 00:20:12;;;;;;;20.07;8.07;;;;;;;2.03;60.30;101044.33;123389;1102;104341;-83
2023/02/24 00:22:44;;;;;;;20.48;7.40;;;;;;;2.05;60.34;101038.47;123405;1102;104261;-82
2023/02/24 00:25:16;;;;;;;18.10;7.10;;;;;;;2.07;60.10;101036.00;123321;1105;104294;-84
2023/02/24 00:27:47;;;;;;;18.47;7.57;;;;;;;2.07;60.27;101036.00;123307;1105;104411;-83
2023/02/24 00:30:20;;;;;;;18.57;7.37;;;;;;;2.09;60.38;101027.58;123383;1105;104255;-82
2023/02/24 00:32:51;;;;;;;17.63;7.43;;;;;;;2.10;60.49;101028.47;123368;1102;104629;-82
2023/02/24 00:35:22;;;;;;;18.27;7.23;;;;;;;2.09;60.13;101024.98;123390;1102;104255;-82
2023/02/24 00:37:53;;;;;;;15.47;6.70;;;;;;;2.09;60.22;101024.98;123381;1102;104242;-83
2023/02/24 00:40:25;;;;;;;18.10;7.30;;;;;;;2.09;60.86;101014.64;123437;1102;104251;-83
2023/02/24 00:42:56;;;;;;;17.80;6.90;;;;;;;2.08;61.09;101015.41;123374;1102;104325;-83
2023/02/24 00:45:29;;;;;;;17.80;7.25;;;;;;;2.07;61.50;101004.94;123418;1103;104373;-83
2023/02/24 00:48:03;;;;;;;15.90;6.70;;;;;;;2.07;60.79;100995.50;123416;1102;104175;-84
2023/02/24 00:50:35;;;;;;;17.10;7.10;;;;;;;2.07;61.41;100995.50;123440;1102;104786;-84
2023/02/24 00:53:07;;;;;;;18.10;7.27;;;;;;;2.06;61.34;100988.51;123405;1103;104398;-82
2023/02/24 00:55:38;;;;;;;16.27;6.73;;;;;;;2.07;61.05;100991.98;123360;1102;104280;-83
2023/02/24 00:58:09;;;;;;;16.87;7.07;;;;;;;2.09;61.56;100982.68;123333;1102;104258;-82
2023/02/24 01:00:42;;;;;;;16.85;6.95;;;;;;;2.10;61.71;100975.03;123296;1102;104302;-84
2023/02/24 01:03:13;;;;;;;18.10;6.55;;;;;;;2.11;61.32;100971.63;123236;1105;104486;-83
2023/02/24 01:05:44;;;;;;;18.70;7.30;;;;;;;2.10;61.61;100964.67;123370;1102;104257;-84
2023/02/24 01:08:20;;;;;;;18.73;7.47;;;;;;;2.10;61.33;100967.27;123360;1102;104450;-83
2023/02/24 01:13:43;;;;;;;19.03;7.23;;;;;;;2.13;61.51;100949.34;123264;1102;104692;-82
2023/02/24 01:16:17;;;;;;;16.60;6.75;;;;;;;2.15;61.44;100942.62;123218;1102;104251;-83
2023/02/24 01:18:50;;;;;;;17.57;7.43;;;;;;;2.15;61.40;100947.80;123391;1102;104424;-83
2023/02/24 01:21:22;;;;;;;17.77;7.50;;;;;;;2.13;62.22;100946.75;123265;1101;104370;-83
2023/02/24 01:23:56;;;;;;;18.83;7.07;;;;;;;2.13;61.35;100945.86;123353;1102;104395;-83
2023/02/24 01:26:29;;;;;;;16.35;6.55;;;;;;;2.12;62.36;100937.20;123141;1102;104175;-83
2023/02/24 01:29:01;;;;;;;17.32;7.28;;;;;;;2.11;61.35;100935.39;123409;1102;104281;-83
2023/02/24 01:31:32;;;;;;;16.93;7.30;;;;;;;2.10;62.09;100936.20;123262;1102;104332;-83
2023/02/24 01:34:04;;;;;;;16.50;6.50;;;;;;;2.10;62.60;100932.68;123340;1105;104309;-84
2023/02/24 01:36:35;;;;;;;17.63;7.60;;;;;;;2.08;62.16;100929.97;123386;1105;104252;-85
2023/02/24 01:39:09;;;;;;;17.47;7.13;;;;;;;2.09;61.89;100923.13;123284;1103;104371;-83
2023/02/24 01:41:43;;;;;;;16.77;7.23;;;;;;;2.11;62.27;100929.32;123373;1102;104255;-85
2023/02/24 01:44:46;;;;;;;18.57;7.93;;;;;;;2.11;61.77;100919.86;123463;1105;104300;-83
2023/02/24 01:47:20;;;;;;;15.00;6.53;;;;;;;2.11;62.24;100914.67;123317;1102;104364;-83
2023/02/24 01:49:54;;;;;;;17.05;7.40;;;;;;;2.12;62.50;100921.67;123528;1102;104365;-84
2023/02/24 01:52:30;;;;;;;19.80;7.60;;;;;;;2.12;62.34;100911.31;123271;1102;104264;-85
2023/02/24 01:55:07;;;;;;;15.03;6.97;;;;;;;2.14;62.20;100909.73;123442;1102;104178;-84
2023/02/24 01:57:40;;;;;;;18.90;7.50;;;;;;;2.14;62.04;100901.08;123565;1102;118596;-84
2023/02/24 02:00:31;;;;;;;17.83;7.23;;;;;;;2.14;62.04;100909.73;123359;1105;104441;-85
2023/02/24 02:03:11;;;;;;;17.20;7.17;;;;;;;2.14;62.77;100903.66;123403;1102;104277;-85
2023/02/24 02:05:47;;;;;;;18.23;7.13;;;;;;;2.13;62.57;100888.91;123277;1102;104289;-83
2023/02/24 02:08:22;;;;;;;18.90;7.87;;;;;;;2.13;62.84;100882.03;123336;1102;104284;-84
2023/02/24 02:10:57;;;;;;;18.40;7.57;;;;;;;2.13;62.77;100884.62;123463;1102;104363;-83
2023/02/24 02:13:34;;;;;;;23.77;8.63;;;;;;;2.14;63.11;100890.72;123382;1102;104290;-83
2023/02/24 02:16:25;;;;;;;18.83;7.27;;;;;;;2.14;62.33;100886.43;123294;1102;104341;-84
2023/02/24 02:19:09;;;;;;;20.23;7.80;;;;;;;2.16;62.67;100874.49;123395;1102;104379;-83
2023/02/24 02:22:16;;;;;;;17.35;7.65;;;;;;;2.17;62.61;100867.65;123309;1102;104300;-83
2023/02/24 02:24:57;;;;;;;18.13;7.13;;;;;;;2.16;63.39;100861.55;123285;1102;104802;-82
2023/02/24 02:27:43;;;;;;;19.10;7.40;;;;;;;2.14;63.08;100860.54;123228;1102;104332;-83
2023/02/24 02:30:46;;;;;;;16.60;7.33;;;;;;;2.13;63.02;100847.48;123418;1102;104278;-84
2023/02/24 02:33:57;;;;;;;20.83;7.50;;;;;;;2.14;63.22;100857.06;123247;1102;104280;-84
2023/02/24 02:36:36;;;;;;;18.07;7.40;;;;;;;2.13;63.08;100850.07;123359;1101;104293;-84
2023/02/24 02:39:16;;;;;;;15.70;7.17;;;;;;;2.13;63.33;100857.84;123288;1103;104357;-84
2023/02/24 02:41:55;;;;;;;19.90;7.63;;;;;;;2.12;62.93;100854.36;123430;1106;104406;-83
2023/02/24 02:44:36;;;;;;;18.43;7.70;;;;;;;2.15;62.91;100854.59;123394;1102;104252;-83
2023/02/24 02:47:13;;;;;;;18.37;7.47;;;;;;;2.17;63.35;100849.52;123392;1102;104299;-83
2023/02/24 02:49:49;;;;;;;18.73;6.93;;;;;;;2.15;63.01;100851.08;123478;1102;104232;-85
2023/02/24 02:52:28;;;;;;;19.57;7.70;;;;;;;2.18;63.76;100853.89;123392;1102;104251;-83
2023/02/24 02:55:07;;;;;;;19.10;8.10;;;;;;;2.19;63.15;100844.46;123362;1102;104370;-84
2023/02/24 02:57:46;;;;;;;17.33;7.03;;;;;;;2.19;63.38;100849.64;123490;1102;104220;-84
2023/02/24 03:00:22;;;;;;;16.73;7.27;;;;;;;2.19;63.36;100844.46;123436;1102;104202;-84
2023/02/24 03:03:02;;;;;;;17.15;7.10;;;;;;;2.20;63.76;100846.23;123356;1102;104733;-85
2023/02/24 03:05:45;;;;;;;19.80;7.70;;;;;;;2.21;63.15;100842.88;123364;1102;104313;-84
2023/02/24 03:08:22;;;;;;;18.43;7.87;;;;;;;2.24;63.47;100837.92;123395;1105;104239;-83
2023/02/24 03:10:56;;;;;;;18.80;8.00;;;;;;;2.24;63.34;100845.70;123406;1102;105945;-84
2023/02/24 03:13:29;;;;;;;;;;;;;;;2.24;63.51;100837.92;123381;1102;104284;-84
2023/02/24 03:16:03;;;;;;;16.80;6.80;;;;;;;2.23;63.42;100837.03;123517;1105;104398;-84
2023/02/24 03:18:39;;;;;;;16.95;7.00;;;;;;;2.24;63.70;100837.92;123314;1102;104277;-83
2023/02/24 03:21:15;;;;;;;17.37;6.93;;;;;;;2.21;64.33;100828.23;123286;1102;104280;-83
2023/02/24 03:23:50;;;;;;;16.27;6.33;;;;;;;2.21;63.52;100827.34;123396;1102;104293;-83
2023/02/24 03:26:27;;;;;;;17.47;7.13;;;;;;;2.22;63.98;100823.97;123353;1105;104284;-84
2023/02/24 03:29:06;;;;;;;17.53;6.97;;;;;;;2.23;63.78;100821.50;123431;1103;104159;-83
2023/02/24 03:31:44;;;;;;;17.43;7.10;;;;;;;2.23;64.00;100815.40;123485;1105;104498;-84
2023/02/24 03:34:24;;;;;;;17.23;6.63;;;;;;;2.23;63.55;100811.14;123396;1105;104306;-82
2023/02/24 03:36:55;;;;;;;17.50;6.90;;;;;;;2.24;63.58;100805.16;123356;1103;104290;-83
2023/02/24 03:39:27;;;;;;;16.57;7.10;;;;;;;2.25;63.39;100803.48;123325;1105;104274;-82
2023/02/24 03:42:14;;;;;;;17.57;7.23;;;;;;;2.25;63.89;100801.79;123354;1105;104281;-84
2023/02/24 03:44:45;;;;;;;20.10;7.35;;;;;;;2.26;63.95;100797.50;123379;1102;104290;-83
2023/02/24 03:47:19;;;;;;;19.17;7.43;;;;;;;2.26;63.59;100800.09;123342;1102;104373;-84
2023/02/24 03:49:49;;;;;;;;;;;;;;;2.27;63.89;100799.31;123540;1105;104502;-83
2023/02/24 03:52:31;;;;;;;17.35;6.75;;;;;;;2.29;63.60;100797.72;123370;1102;104309;-85
2023/02/24 03:55:16;;;;;;;18.20;6.90;;;;;;;2.29;63.93;100788.29;123492;1105;104338;-83
2023/02/24 03:58:04;;;;;;;21.07;7.63;;;;;;;2.28;63.87;100777.81;123448;1102;104402;-83
2023/02/24 04:00:53;;;;;;;18.60;6.97;;;;;;;2.29;63.45;100777.93;123210;1102;106992;-83
2023/02/24 04:03:33;;;;;;;19.37;7.03;;;;;;;2.28;63.28;100773.53;123328;1102;104785;-83
2023/02/24 04:06:22;;;;;;;15.97;6.60;;;;;;;2.28;63.17;100764.88;123322;1102;104386;-83
2023/02/24 04:09:00;;;;;;;30.47;8.10;;;;;;;2.25;63.46;100762.95;123324;1103;104248;-83
2023/02/24 04:11:37;;;;;;;17.13;7.27;;;;;;;2.25;63.84;100762.06;123413;1102;104505;-83
2023/02/24 04:14:14;;;;;;;19.45;7.80;;;;;;;2.22;63.81;100751.47;123257;1105;104357;-83
2023/02/24 04:16:53;;;;;;;20.30;7.47;;;;;;;2.22;63.15;100751.47;123330;1102;104450;-84
2023/02/24 04:19:30;;;;;;;27.13;7.60;;;;;;;2.19;63.67;100744.38;123386;1105;104335;-84
2023/02/24 04:22:03;;;;;;;17.37;7.17;;;;;;;2.19;63.87;100743.48;123289;1105;104259;-83
2023/02/24 04:24:37;;;;;;;18.00;7.15;;;;;;;2.17;64.12;100745.96;123299;1102;104382;-83
2023/02/24 04:27:15;;;;;;;17.30;6.73;;;;;;;2.19;63.84;100740.89;123306;1102;104255;-83
2023/02/24 04:29:51;;;;;;;17.73;7.30;;;;;;;2.18;63.71;100728.72;123330;1102;104437;-83
2023/02/24 04:32:27;;;;;;;17.60;6.97;;;;;;;2.14;63.79;100728.50;123318;1105;104287;-83
2023/02/24 04:35:06;;;;;;;16.97;6.47;;;;;;;2.10;63.38;100729.09;123413;1105;104207;-85
2023/02/24 04:37:43;;;;;;;16.80;7.07;;;;;;;2.07;63.67;100723.69;123411;1105;104395;-84
2023/02/24 04:40:20;;;;;;;19.23;7.50;;;;;;;2.05;64.17;100717.47;123296;1105;104265;-85
2023/02/24 04:42:54;;;;;;;17.10;7.17;;;;;;;2.03;63.87;100719.06;123286;1105;104254;-83
2023/02/24 04:45:27;;;;;;;18.33;6.90;;;;;;;2.03;63.93;100718.17;123311;1105;104342;-82
2023/02/24 04:48:00;;;;;;;21.00;7.72;;;;;;;2.02;63.98;100711.19;123405;1105;104265;-85
2023/02/24 04:50:35;;;;;;;17.63;7.10;;;;;;;2.00;63.77;100708.48;123487;1102;104277;-82
2023/02/24 04:53:10;;;;;;;15.83;6.93;;;;;;;1.97;64.38;100711.73;123442;1102;104411;-83
2023/02/24 04:55:47;;;;;;;18.17;7.30;;;;;;;1.95;63.71;100702.97;123444;1102;104482;-82
2023/02/24 04:58:20;;;;;;;19.80;7.40;;;;;;;1.94;64.25;100692.50;123350;1105;104222;-83
2023/02/24 05:00:54;;;;;;;17.60;6.77;;;;;;;1.93;63.87;100701.97;123411;1102;104290;-82
2023/02/24 05:03:28;;;;;;;18.40;7.10;;;;;;;1.92;64.05;100700.16;123465;1102;104242;-83
2023/02/24 05:06:01;;;;;;;18.53;6.87;;;;;;;1.92;63.84;100699.27;123460;1102;104421;-83
2023/02/24 05:08:32;;;;;;;19.25;7.05;;;;;;;1.91;63.72;100695.75;123550;1102;104275;-84
2023/02/24 05:11:04;;;;;;;22.47;7.50;;;;;;;1.91;64.16;100685.41;123499;1102;104258;-84
2023/02/24 05:13:36;;;;;;;16.53;6.87;;;;;;;1.93;64.33;100698.45;123799;1102;104322;-87
2023/02/24 05:16:09;;;;;;;15.20;6.63;;;;;;;1.92;64.83;100689.80;124027;1102;104383;-87
2023/02/24 05:18:41;;;;;;;21.05;7.20;;;;;;;1.95;64.10;100694.31;123883;1101;104425;-85
2023/02/24 05:24:05;;;;;;;18.27;7.07;;;;;;;2.00;65.05;100679.12;123950;1102;104206;-86
2023/02/24 05:26:40;;;;;;;29.72;7.92;;;;;;;2.03;64.24;100682.82;123959;1105;104293;-86
2023/02/24 05:29:13;;;;;;;19.17;7.20;;;;;;;2.07;64.40;100678.76;123779;1105;102103;-83
2023/02/24 05:31:44;;;;;;;18.33;7.50;;;;;;;2.09;64.47;100678.09;123513;1102;104297;-83
2023/02/24 05:34:16;;;;;;;19.45;8.25;;;;;;;2.13;64.33;100676.61;123537;1102;104359;-85
2023/02/24 05:36:48;;;;;;;19.47;8.10;;;;;;;2.18;64.21;100666.59;123481;1102;104367;-85
2023/02/24 05:39:19;;;;;;;22.40;8.33;;;;;;;2.23;64.51;100662.62;123538;1102;104306;-84
2023/02/24 05:41:53;;;;;;;17.90;7.47;;;;;;;2.32;64.52;100661.63;123926;1102;103283;-85
2023/02/24 05:44:26;;;;;;;20.95;8.00;;;;;;;2.35;64.67;100663.51;123969;1102;104255;-84
2023/02/24 05:46:58;;;;;;;20.90;8.13;;;;;;;2.40;64.69;100658.66;124040;1102;104271;-85
2023/02/24 05:49:32;;;;;;;21.03;8.03;;;;;;;2.43;64.24;100653.69;124470;1103;104325;-83
2023/02/24 05:52:07;;;;;;;16.87;6.80;;;;;;;2.47;64.67;100648.84;124051;1102;104172;-85
2023/02/24 05:54:40;;;;;;;18.83;6.80;;;;;;;2.48;64.78;100653.23;124385;1102;104182;-85
2023/02/24 05:57:15;;;;;;;17.93;6.70;;;;;;;2.51;64.36;100649.97;124148;1102;104249;-85
2023/02/24 05:59:49;;;;;;;19.87;8.00;;;;;;;2.57;64.31;100647.81;124043;1102;104313;-84
2023/02/24 06:02:25;;;;;;;18.17;7.58;;;;;;;2.64;64.27;100641.36;124070;1102;104281;-84
2023/02/24 06:04:59;;;;;;;17.25;7.35;;;;;;;2.70;65.08;100634.02;124218;1102;104276;-83
2023/02/24 06:07:34;;;;;;;19.40;7.70;;;;;;;2.77;64.39;100633.63;124404;1102;104245;-84
2023/02/24 06:10:10;;;;;;;19.27;8.00;;;;;;;2.84;64.34;100633.27;124234;1103;104317;-88
2023/02/24 06:12:42;;;;;;;24.47;7.97;;;;;;;2.92;64.14;100620.83;124273;1102;104336;-84
2023/02/24 06:15:13;;;;;;;20.00;7.27;;;;;;;2.99;64.70;100629.91;124495;1102;104271;-83
2023/02/24 06:17:48;;;;;;;20.55;8.50;;;;;;;3.05;64.80;100622.55;124141;1102;104267;-87
2023/02/24 06:20:21;;;;;;;20.10;8.10;;;;;;;3.12;64.51;100611.80;124193;1102;104335;-84
2023/02/24 06:22:53;;;;;;;19.13;8.03;;;;;;;3.21;64.31;100615.02;124699;1101;104370;-86
2023/02/24 06:25:32;;;;;;;19.03;7.90;;;;;;;3.29;64.31;100617.20;125017;1102;104283;-83
2023/02/24 06:28:09;;;;;;;18.63;7.40;;;;;;;3.28;64.39;100605.94;124975;1102;104299;-84
2023/02/24 06:30:46;;;;;;;20.27;8.30;;;;;;;3.31;64.37;100610.45;125001;1102;103177;-80
2023/02/24 06:33:26;;;;;;;21.27;8.27;;;;;;;3.38;64.59;100607.44;124990;1103;104172;-77
2023/02/24 06:36:02;;;;;;;22.33;7.87;;;;;;;3.45;63.66;100604.47;124325;1105;104325;-82
2023/02/24 06:38:42;;;;;;;16.40;6.90;;;;;;;3.54;64.36;100599.87;124524;1102;104211;-78
2023/02/24 06:41:14;;;;;;;18.90;7.47;;;;;;;3.63;63.72;100601.27;124582;1102;102889;-80
2023/02/24 06:43:47;;;;;;;20.03;7.80;;;;;;;3.73;63.53;100593.30;124398;1102;104232;-82
2023/02/24 06:46:22;;;;;;;18.93;7.90;;;;;;;3.84;63.55;100599.18;124773;1102;104650;-81
2023/02/24 06:48:54;;;;;;;18.60;7.47;;;;;;;3.96;63.95;100589.58;124612;1105;104344;-81
2023/02/24 06:51:28;;;;;;;21.10;7.63;;;;;;;4.02;63.62;100586.45;124582;1106;102780;-83
2023/02/24 06:54:01;;;;;;;16.70;7.30;;;;;;;4.10;63.84;100582.66;124392;1102;112835;-81
2023/02/24 06:56:37;;;;;;;18.77;7.23;;;;;;;4.13;63.49;100577.66;124454;1102;103088;-82
2023/02/24 06:59:11;;;;;;;23.32;7.80;;;;;;;4.27;63.35;100563.83;125921;1102;102067;-81
2023/02/24 07:02:00;;;;;;;18.87;7.33;;;;;;;4.38;63.24;100559.30;126128;1101;101974;-80
2023/02/24 07:04:42;;;;;;;17.97;7.23;;;;;;;4.50;63.29;100559.13;125775;1105;102644;-81
2023/02/24 07:07:16;;;;;;;20.67;7.60;;;;;;;4.59;63.57;100556.20;125879;1102;102015;-81
2023/02/24 07:09:50;;;;;;;17.67;7.30;;;;;;;4.70;62.82;100544.73;125958;1102;102688;-82
2023/02/24 07:12:24;;;;;;;19.87;6.73;;;;;;;4.81;62.54;100542.78;125822;1104;102903;-80
2023/02/24 07:14:57;;;;;;;15.30;5.37;;;;;;;4.88;63.21;100534.55;125692;1105;107917;-79
2023/02/24 07:17:29;;;;;;;16.80;6.50;;;;;;;4.93;62.59;100538.30;124682;1102;104184;-84
2023/02/24 07:20:10;;;;;;;16.03;6.10;;;;;;;5.01;63.38;100534.44;124455;1102;104319;-86
2023/02/24 07:22:47;;;;;;;17.37;6.37;;;;;;;5.09;63.23;100536.61;125259;1102;104185;-87
2023/02/24 07:28:10;;;;;;;13.17;5.97;;;;;;;5.22;62.06;100513.11;125347;1105;103113;-82
2023/02/24 07:30:52;;;;;;;15.43;6.13;;;;;;;5.26;62.73;100525.45;125245;1104;104191;-79
2023/02/24 07:33:25;;;;;;;17.10;6.30;;;;;;;5.35;62.92;100519.90;124598;1106;104226;-81
2023/02/24 07:36:07;;;;;;;17.70;6.20;;;;;;;5.42;63.03;100513.33;124973;1103;104130;-80
2023/02/24 07:38:41;;;;;;;22.70;8.13;;;;;;;5.51;62.93;100506.92;124939;1102;104217;-78
2023/02/24 07:41:32;;;;;;;19.53;6.63;;;;;;;5.56;62.71;100504.58;124504;1105;103604;-80
2023/02/24 07:44:13;;;;;;;16.30;6.33;;;;;;;5.65;62.54;100489.47;124560;1103;104309;-80
2023/02/24 07:46:51;;;;;;;15.85;6.05;;;;;;;5.73;62.81;100493.41;124560;1105;103562;-81
2023/02/24 07:49:28;;;;;;;15.83;6.20;;;;;;;5.78;62.36;100516.19;124711;1102;102154;-78
2023/02/24 07:52:00;;;;;;;20.13;6.43;;;;;;;5.77;62.18;100497.08;126105;1102;102941;-81
2023/02/24 07:54:35;;;;;;;13.00;5.63;;;;;;;5.81;62.37;100491.20;125793;1105;102819;-80
2023/02/24 07:57:12;;;;;;;23.13;6.47;;;;;;;5.87;62.43;100491.53;125928;1102;103847;-80
2023/02/24 07:59:46;;;;;;;15.07;6.17;;;;;;;5.90;61.76;100485.61;126141;1102;101944;-80
2023/02/24 08:02:24;;;;;;;16.53;5.93;;;;;;;5.97;62.10;100486.86;126121;1102;102634;-80
2023/02/24 08:05:12;;;;;;;12.97;5.53;;;;;;;6.11;61.88;100481.59;125925;1104;103541;-81
2023/02/24 08:07:51;;;;;;;16.13;6.40;;;;;;;6.21;61.72;100477.75;125861;1102;103277;-82
2023/02/24 08:10:34;;;;;;;15.37;5.90;;;;;;;6.32;62.33;100472.22;125604;1105;103258;-84
2023/02/24 08:13:10;;;;;;;17.23;6.23;;;;;;;6.34;61.38;100458.43;125191;1105;103029;-84
2023/02/24 08:15:55;;;;;;;12.43;5.70;;;;;;;6.36;61.09;100462.03;125313;1105;101642;-80
2023/02/24 08:18:36;;;;;;;11.47;4.87;;;;;;;6.41;61.11;100452.73;124948;1102;104213;-79
2023/02/24 08:21:19;;;;;;;15.53;5.90;;;;;;;6.52;61.34;100447.19;125883;1102;102447;-82
2023/02/24 08:23:57;;;;;;;19.23;5.63;;;;;;;6.57;60.85;100446.58;125897;1102;102544;-81
2023/02/24 08:26:47;;;;;;;19.27;6.73;;;;;;;6.63;61.46;100436.47;125789;1105;111774;-81
2023/02/24 08:29:38;;;;;;;16.73;5.67;;;;;;;6.72;61.13;100443.87;125731;1105;103432;-80
2023/02/24 08:32:57;;;;;;;15.43;6.50;;;;;;;6.76;60.04;100422.35;125820;1102;103662;-80
2023/02/24 08:36:11;;;;;;;14.70;5.03;;;;;;;6.81;60.55;100430.41;125765;1105;102712;-82
2023/02/24 08:38:50;;;;;;;16.50;6.10;;;;;;;6.87;59.96;100415.03;125896;1105;102894;-81
2023/02/24 08:41:53;;;;;;;16.50;5.50;;;;;;;6.97;59.90;100416.40;125901;1105;102576;-80
2023/02/24 08:44:27;;;;;;;19.10;6.27;;;;;;;7.09;60.18;100401.34;126151;1101;102464;-80
2023/02/24 08:47:25;;;;;;;;;;;;;;;;;;;;;
2023/02/24 08:50:10;;;;;;;15.30;5.53;;;;;;;7.24;58.55;100387.22;125186;1105;104355;-80
2023/02/24 08:52:50;;;;;;;14.77;5.37;;;;;;;7.35;59.25;100386.00;125279;1102;102483;-81
2023/02/24 08:55:39;;;;;;;15.13;5.60;;;;;;;7.46;58.05;100390.00;125402;1102;102601;-83
2023/02/24 08:58:23;;;;;;;14.90;6.03;;;;;;;7.55;57.73;100372.14;125278;1106;102561;-79
2023/02/24 09:01:02;;;;;;;14.50;6.63;;;;;;;7.67;58.68;100378.77;125500;1102;103960;-81
2023/02/24 09:03:44;;;;;;;17.97;6.13;;;;;;;7.72;56.68;100364.19;125348;1102;104369;-81
2023/02/24 09:06:34;;;;;;;16.57;6.37;;;;;;;7.85;57.75;100371.77;124539;1105;104185;-78
2023/02/24 09:09:21;;;;;;;17.65;5.85;;;;;;;8.01;58.28;100370.72;124477;1102;104245;-79
2023/02/24 09:11:57;;;;;;;13.37;5.30;;;;;;;8.15;57.33;100362.56;125344;1105;104283;-82
2023/02/24 09:14:41;;;;;;;13.30;5.33;;;;;;;8.24;56.52;100376.03;125402;1105;103551;-83
2023/02/24 09:17:19;;;;;;;15.50;5.53;;;;;;;8.32;57.24;100363.29;125313;1102;104073;-83
2023/02/24 09:23:09;;;;;;;13.07;5.17;;;;;;;8.46;55.18;100351.72;125174;1102;102997;-81
2023/02/24 09:25:56;;;;;;;14.00;5.50;;;;;;;8.57;55.57;100345.23;125178;1103;104331;-83
2023/02/24 09:28:47;;;;;;;13.00;5.33;;;;;;;8.60;54.26;100332.28;125313;1105;104256;-81
2023/02/24 09:31:54;;;;;;;16.37;4.67;;;;;;;8.76;55.62;100328.56;125211;1102;103082;-80
2023/02/24 09:35:00;;;;;;;18.27;5.90;;;;;;;8.88;54.59;100315.09;124499;1105;104316;-81
2023/02/24 09:37:41;;;;;;;17.13;5.43;;;;;;;8.95;52.47;100316.20;124374;1102;104600;-77
2023/02/24 09:40:47;;;;;;;13.17;5.10;;;;;;;8.98;52.94;100311.09;124502;1105;104328;-77
2023/02/24 09:43:26;;;;;;;12.83;5.20;;;;;;;9.11;53.74;100310.72;124366;1102;104224;-81
2023/02/24 09:46:13;;;;;;;13.57;4.60;;;;;;;9.17;51.09;100304.84;125871;1105;102706;-82
2023/02/24 09:49:04;;;;;;;11.73;4.90;;;;;;;9.20;53.37;100288.36;126001;1102;102907;-82
2023/02/24 09:51:42;;;;;;;17.67;5.43;;;;;;;9.25;51.53;100285.06;126063;1101;102162;-80
2023/02/24 09:54:19;;;;;;;12.50;4.90;;;;;;;9.29;52.09;100292.21;124836;1104;103633;-81
2023/02/24 09:57:07;;;;;;;13.73;4.90;;;;;;;9.38;53.37;100283.82;124447;1102;101911;-78
2023/02/24 09:59:59;;;;;;;16.73;5.90;;;;;;;9.34;52.08;100284.53;126281;1102;102106;-79
2023/02/24 10:02:58;;;;;;;10.90;5.00;;;;;;;9.26;52.07;100265.91;126248;1102;102594;-78
2023/02/24 10:05:44;;;;;;;13.40;5.20;;;;;;;9.22;51.55;100260.50;125834;1104;102347;-79
2023/02/24 10:08:26;;;;;;;12.93;5.17;;;;;;;9.19;51.99;100253.42;125868;1105;102652;-78
2023/02/24 10:11:07;;;;;;;15.97;5.37;;;;;;;9.21;53.19;100259.62;125911;1102;101949;-78
2023/02/24 10:13:47;;;;;;;16.40;4.80;;;;;;;9.17;50.79;100244.63;126068;1102;102107;-79
2023/02/24 10:16:40;;;;;;;13.83;5.40;;;;;;;9.16;51.40;100235.89;125985;1100;101884;-79
2023/02/24 10:19:18;;;;;;;;;;;;;;;9.27;50.97;100241.52;126154;1102;112707;-81
2023/02/24 10:22:03;;;;;;;12.67;5.00;;;;;;;9.35;50.85;100228.72;126035;1102;102491;-79
2023/02/24 10:24:53;;;;;;;11.57;4.93;;;;;;;9.44;50.74;100217.66;125908;1102;102012;-81
2023/02/24 10:27:51;;;;;;;13.23;5.20;;;;;;;9.49;51.40;100198.66;125902;1102;102902;-78
2023/02/24 10:30:42;;;;;;;11.27;5.03;;;;;;;9.54;50.09;100215.42;125853;1102;102016;-81
2023/02/24 10:33:33;;;;;;;18.07;5.87;;;;;;;9.59;50.73;100202.48;125864;1102;102543;-82
2023/02/24 10:36:18;;;;;;;13.33;5.83;;;;;;;9.72;52.25;100198.55;125855;1102;102073;-80
2023/02/24 10:39:07;;;;;;;16.57;5.77;;;;;;;9.82;52.17;100189.30;125298;1105;102325;-81
2023/02/24 10:41:55;;;;;;;14.70;5.20;;;;;;;9.92;52.07;100178.27;124621;1102;104195;-81
2023/02/24 10:44:50;;;;;;;16.33;5.80;;;;;;;10.02;51.26;100171.58;125349;1102;104089;-80
2023/02/24 10:47:55;;;;;;;17.23;5.70;;;;;;;10.09;51.06;100165.70;125369;1102;102681;-81
2023/02/24 10:50:32;;;;;;;14.85;5.37;;;;;;;10.23;51.24;100163.53;124655;1104;104616;-82
2023/02/24 10:53:25;;;;;;;13.23;5.20;;;;;;;10.37;51.44;100164.00;125480;1105;102377;-83
2023/02/24 10:59:19;;;;;;;18.20;5.97;;;;;;;10.29;51.53;100147.11;124837;1102;104255;-82
2023/02/24 11:02:05;;;;;;;12.50;5.33;;;;;;;10.28;51.28;100140.95;124811;1102;103507;-82
2023/02/24 11:04:53;;;;;;;13.70;5.87;;;;;;;10.35;50.70;100131.60;124958;1106;102650;-83
2023/02/24 11:07:42;;;;;;;18.07;6.37;;;;;;;10.31;50.74;100109.58;125513;1102;102779;-81
2023/02/24 11:10:24;;;;;;;12.63;5.70;;;;;;;10.32;51.23;100113.11;125479;1102;107464;-81
2023/02/24 11:18:53;;;;;;;13.90;5.50;;;;;;;10.07;50.89;100100.12;124952;1103;102268;-81
2023/02/24 11:21:30;;;;;;;17.60;5.80;;;;;;;10.00;51.60;100094.64;125553;1102;102856;-81
2023/02/24 11:24:39;;;;;;;19.43;5.60;;;;;;;9.97;51.62;100078.81;125439;1102;102181;-81
2023/02/24 11:27:22;;;;;;;16.73;5.50;;;;;;;10.01;51.70;100088.56;125444;1102;103212;-79
2023/02/24 11:30:14;;;;;;;16.77;5.63;;;;;;;10.02;51.65;100080.75;124797;1104;104130;-82
2023/02/24 11:33:13;;;;;;;17.13;5.57;;;;;;;10.12;51.59;100083.66;124802;1105;102076;-81
2023/02/24 11:36:04;;;;;;;32.53;7.93;;;;;;;10.14;52.09;100074.09;124579;1102;104172;-80
2023/02/24 11:38:40;;;;;;;;;;;;;;;10.06;51.88;100074.73;124876;1102;102919;-83
2023/02/24 11:41:24;;;;;;;18.63;5.87;;;;;;;9.98;51.81;100070.13;125435;1102;102998;-79
2023/02/24 11:44:06;;;;;;;16.70;5.60;;;;;;;9.84;51.96;100075.80;124627;1102;101801;-81
2023/02/24 11:46:45;;;;;;;13.70;5.63;;;;;;;9.78;52.71;100062.50;124535;1105;103061;-80
2023/02/24 11:49:33;;;;;;;13.83;5.67;;;;;;;9.81;52.50;100075.70;124594;1102;104223;-81
2023/02/24 11:52:14;;;;;;;22.60;6.40;;;;;;;9.92;52.84;100069.92;124894;1102;104258;-81
2023/02/24 11:54:52;;;;;;;18.70;6.30;;;;;;;9.98;52.92;100073.63;124935;1102;102151;-81
2023/02/24 11:57:34;;;;;;;17.90;6.23;;;;;;;10.00;52.40;100064.09;124972;1105;102804;-80
2023/02/24 12:00:21;;;;;;;16.70;6.37;;;;;;;9.94;53.19;100063.91;124995;1102;104147;-81
2023/02/24 12:03:11;;;;;;;20.07;6.63;;;;;;;9.88;53.30;100068.95;125517;1102;102151;-82
2023/02/24 12:05:57;;;;;;;17.60;6.27;;;;;;;9.86;53.25;100060.13;125405;1105;103132;-81
2023/02/24 12:08:36;;;;;;;18.70;6.70;;;;;;;9.78;53.39;100057.27;125443;1102;104223;-80
2023/02/24 12:11:33;;;;;;;17.37;6.40;;;;;;;9.73;53.31;100037.02;124761;1102;104201;-78
2023/02/24 12:14:40;;;;;;;;;;;;;;;;;;;;;
2023/02/24 12:17:37;;;;;;;20.77;6.50;;;;;;;9.77;54.00;100033.63;125417;1105;104049;-80
2023/02/24 12:20:27;;;;;;;15.67;6.17;;;;;;;9.81;53.67;100040.77;124626;1105;104552;-79
2023/02/24 12:23:16;;;;;;;17.80;6.30;;;;;;;9.80;53.66;100038.97;124774;1105;102138;-78
2023/02/24 12:26:05;;;;;;;17.83;7.10;;;;;;;9.75;53.94;100024.84;124650;1103;104261;-81
2023/02/24 12:28:59;;;;;;;17.67;6.83;;;;;;;9.75;53.94;100040.56;124572;1105;103053;-82
2023/02/24 12:31:51;;;;;;;17.53;5.83;;;;;;;9.69;55.04;100021.20;124432;1102;102008;-78